createdAt,value
2022-12-12T00:00:03.117Z,1005.79
2022-12-12T00:05:19.185Z,1005.84
2022-12-12T00:10:03.055Z,1005.84
2022-12-12T00:15:02.903Z,1005.86
2022-12-12T00:20:03.092Z,1005.86
2022-12-12T00:25:02.977Z,1005.86
2022-12-12T00:30:02.981Z,1005.97
2022-12-12T00:35:02.879Z,1005.93
2022-12-12T00:40:03.100Z,1005.93
2022-12-12T00:45:02.969Z,1006.02
2022-12-12T00:50:04.082Z,1006.02
2022-12-12T00:55:03.038Z,1005.97
2022-12-12T01:00:03.094Z,1006.1
2022-12-12T01:05:02.961Z,1006.2
2022-12-12T01:10:03.034Z,1006.28
2022-12-12T01:15:04.021Z,1006.32
2022-12-12T01:20:03.026Z,1006.35
2022-12-12T01:25:02.976Z,1006.35
2022-12-12T01:30:03.081Z,1006.3
2022-12-12T01:35:03.008Z,1006.28
2022-12-12T01:40:03.059Z,1006.3
2022-12-12T01:45:02.983Z,1006.29
2022-12-12T01:50:03.061Z,1006.24
2022-12-12T01:55:02.876Z,1006.22
2022-12-12T02:00:03.042Z,1006.25
2022-12-12T02:05:02.929Z,1006.22
2022-12-12T02:10:03.068Z,1006.2
2022-12-12T02:15:02.940Z,1006.18
2022-12-12T02:20:03.000Z,1006.07
2022-12-12T02:25:02.924Z,1006.07
2022-12-12T02:30:03.082Z,1006.06
2022-12-12T02:35:03.099Z,1006.12
2022-12-12T02:40:03.039Z,1006.14
2022-12-12T02:45:02.999Z,1006.27
2022-12-12T02:50:03.155Z,1006.25
2022-12-12T02:55:02.949Z,1006.3
2022-12-12T03:00:02.995Z,1006.3
2022-12-12T03:05:02.947Z,1006.2
2022-12-12T03:10:04.099Z,1006.15
2022-12-12T03:15:02.916Z,1006.16
2022-12-12T03:20:03.028Z,1006.08
2022-12-12T03:25:03.001Z,1005.96
2022-12-12T03:30:03.017Z,1005.94
2022-12-12T03:35:02.974Z,1005.95
2022-12-12T03:40:03.242Z,1005.85
2022-12-12T03:45:02.879Z,1005.63
2022-12-12T03:50:03.099Z,1005.53
2022-12-12T03:55:02.914Z,1005.4
2022-12-12T04:00:03.042Z,1005.41
2022-12-12T04:05:02.922Z,1005.38
2022-12-12T04:10:04.200Z,1005.36
2022-12-12T04:15:02.891Z,1005.33
2022-12-12T04:20:03.093Z,1005.12
2022-12-12T04:25:02.957Z,1005.09
2022-12-12T04:30:03.116Z,1005.03
2022-12-12T04:35:02.946Z,1005.05
2022-12-12T04:40:03.030Z,1005.02
2022-12-12T04:45:02.986Z,1005.01
2022-12-12T04:50:03.038Z,1004.97
2022-12-12T04:55:02.981Z,1004.96
2022-12-12T05:00:02.972Z,1004.92
2022-12-12T05:05:02.954Z,1004.88
2022-12-12T05:10:03.987Z,1004.87
2022-12-12T05:15:02.965Z,1004.82
2022-12-12T05:20:03.037Z,1004.87
2022-12-12T05:25:02.984Z,1004.89
2022-12-12T05:30:03.035Z,1004.85
2022-12-12T05:35:02.950Z,1004.85
2022-12-12T05:40:03.022Z,1004.89
2022-12-12T05:45:02.914Z,1004.84
2022-12-12T05:50:03.195Z,1004.79
2022-12-12T05:55:02.945Z,1004.74
2022-12-12T06:00:02.970Z,1004.8
2022-12-12T06:05:02.959Z,1004.73
2022-12-12T06:10:02.983Z,1004.77
2022-12-12T06:15:02.920Z,1004.83
2022-12-12T06:20:03.035Z,1004.92
2022-12-12T06:25:02.947Z,1004.97
2022-12-12T06:30:02.995Z,1005.0
2022-12-12T06:35:07.963Z,1004.98
2022-12-12T14:40:03.091Z,1006.47
2022-12-12T14:45:02.962Z,1006.41
2022-12-12T14:50:03.099Z,1006.3
2022-12-12T14:55:02.969Z,1006.21
2022-12-12T15:00:03.151Z,1006.18
2022-12-12T15:05:04.838Z,1005.98
2022-12-12T15:10:03.056Z,1005.9
2022-12-12T15:15:02.961Z,1005.81
2022-12-12T15:20:03.060Z,1005.65
2022-12-12T15:25:02.884Z,1005.5
2022-12-12T15:30:03.134Z,1005.39
2022-12-12T15:35:02.980Z,1005.29
2022-12-12T15:40:03.079Z,1005.24
2022-12-12T15:45:08.007Z,1005.12
2022-12-12T15:50:03.003Z,1005.13
2022-12-12T15:55:03.017Z,1005.07
2022-12-12T16:00:03.286Z,1005.0
2022-12-12T16:05:02.980Z,1004.99
2022-12-12T16:10:04.104Z,1004.9
2022-12-12T16:15:02.923Z,1004.81
2022-12-12T16:20:03.199Z,1004.81
2022-12-12T16:25:03.031Z,1004.85
2022-12-12T16:30:02.997Z,1004.65
2022-12-12T16:35:02.943Z,1004.54
2022-12-12T16:40:03.060Z,1004.51
2022-12-12T16:45:02.924Z,1004.47
2022-12-12T16:50:03.066Z,1004.31
2022-12-12T16:55:03.430Z,1004.23
2022-12-12T17:00:03.049Z,1004.11
2022-12-12T17:05:02.978Z,1003.94
2022-12-12T17:10:03.028Z,1003.88
2022-12-12T17:15:02.957Z,1003.85
2022-12-12T17:20:03.024Z,1003.72
2022-12-12T17:25:02.952Z,1003.59
2022-12-12T17:30:03.101Z,1003.64
2022-12-12T17:35:04.029Z,1003.47
2022-12-12T17:40:03.042Z,1003.37
2022-12-12T17:45:02.951Z,1003.16
2022-12-12T17:50:03.041Z,1003.2
2022-12-12T17:55:52.678Z,1003.07
2022-12-12T18:00:02.992Z,1002.98
2022-12-12T18:05:02.993Z,1003.01
2022-12-12T18:10:03.001Z,1002.85
2022-12-12T18:15:02.913Z,1002.82
2022-12-12T18:20:03.073Z,1002.7
2022-12-12T18:25:02.953Z,1002.63
2022-12-12T18:30:03.003Z,1002.59
2022-12-12T18:35:03.131Z,1002.67
2022-12-12T18:40:03.094Z,1002.51
2022-12-12T18:45:03.175Z,1002.44
2022-12-12T18:50:03.026Z,1002.32
2022-12-12T18:55:02.955Z,1002.25
2022-12-12T19:00:03.092Z,1002.16
2022-12-12T19:05:03.071Z,1002.0
2022-12-12T19:10:02.993Z,1001.86
2022-12-12T19:15:18.540Z,1001.83
2022-12-12T19:20:03.037Z,1001.91
2022-12-12T19:25:02.957Z,1001.94
2022-12-12T19:30:03.004Z,1001.84
2022-12-12T19:35:03.008Z,1001.89
2022-12-12T19:40:03.097Z,1001.91
2022-12-12T19:45:02.947Z,1002.01
2022-12-12T19:50:03.107Z,1002.12
2022-12-12T19:55:02.941Z,1002.35
2022-12-12T20:00:03.065Z,1002.7
2022-12-12T20:05:03.063Z,1002.93
2022-12-12T20:10:03.090Z,1002.8
2022-12-12T20:15:02.956Z,1002.69
2022-12-12T20:20:03.031Z,1002.66
2022-12-12T20:25:02.985Z,1002.73
2022-12-12T20:30:03.074Z,1002.73
2022-12-12T20:35:03.132Z,1002.76
2022-12-12T20:40:03.158Z,1002.87
2022-12-12T20:45:02.901Z,1002.94
2022-12-12T20:50:03.055Z,1002.99
2022-12-12T20:55:02.964Z,1003.01
2022-12-12T21:00:04.094Z,1002.9
2022-12-12T21:05:03.019Z,1002.87
2022-12-12T21:10:04.622Z,1002.93
2022-12-12T21:15:07.973Z,1002.91
2022-12-12T21:20:06.452Z,1002.87
2022-12-12T21:25:02.930Z,1002.87
2022-12-12T21:30:03.039Z,1002.77
2022-12-12T21:35:02.954Z,1002.78
2022-12-12T21:40:03.070Z,1002.77
2022-12-12T21:45:03.002Z,1002.79
2022-12-12T21:50:03.102Z,1002.87
2022-12-12T21:55:02.961Z,1002.85
2022-12-12T22:00:03.075Z,1002.8
2022-12-12T22:05:03.027Z,1002.85
2022-12-12T22:10:11.313Z,1002.76
2022-12-12T22:15:02.960Z,1002.66
2022-12-12T22:20:03.068Z,1002.78
2022-12-12T22:25:02.939Z,1002.78
2022-12-12T22:30:03.050Z,1002.87
2022-12-12T22:35:03.203Z,1002.9
2022-12-12T22:40:03.091Z,1003.07
2022-12-12T22:45:03.041Z,1003.11
2022-12-12T22:50:03.305Z,1003.37
2022-12-12T22:55:03.017Z,1003.44
2022-12-12T23:00:04.042Z,1003.52
2022-12-12T23:05:03.198Z,1003.57
2022-12-12T23:10:03.052Z,1003.54
2022-12-12T23:15:03.053Z,1003.59
2022-12-12T23:20:03.247Z,1003.7
2022-12-12T23:25:03.012Z,1003.75
2022-12-12T23:30:03.026Z,1003.75
2022-12-12T23:35:03.043Z,1003.79
2022-12-12T23:40:03.073Z,1003.83
2022-12-12T23:45:03.038Z,1003.79
2022-12-12T23:50:03.103Z,1003.79
2022-12-12T23:55:02.953Z,1004.01
